sensor_id;sensor_type;location;lat;lon;timestamp;temperature;humidity
664;DHT22;314;48.770;9.246;2022-08-19T00:00:24;22.90;78.30
664;DHT22;314;48.770;9.246;2022-08-19T00:02:50;22.80;78.40
664;DHT22;314;48.770;9.246;2022-08-19T00:05:16;22.80;78.70
664;DHT22;314;48.770;9.246;2022-08-19T00:07:43;22.80;78.80
664;DHT22;314;48.770;9.246;2022-08-19T00:10:11;22.80;78.80
664;DHT22;314;48.770;9.246;2022-08-19T00:12:37;22.90;78.70
664;DHT22;314;48.770;9.246;2022-08-19T00:15:05;22.90;78.50
664;DHT22;314;48.770;9.246;2022-08-19T00:17:33;22.80;79.10
664;DHT22;314;48.770;9.246;2022-08-19T00:19:59;22.80;79.40
664;DHT22;314;48.770;9.246;2022-08-19T00:22:25;22.70;79.80
664;DHT22;314;48.770;9.246;2022-08-19T00:24:53;22.70;79.60
664;DHT22;314;48.770;9.246;2022-08-19T00:27:19;22.70;79.60
664;DHT22;314;48.770;9.246;2022-08-19T00:29:45;22.70;79.50
664;DHT22;314;48.770;9.246;2022-08-19T00:32:11;22.70;79.80
664;DHT22;314;48.770;9.246;2022-08-19T00:34:37;22.80;79.60
664;DHT22;314;48.770;9.246;2022-08-19T00:37:03;22.70;79.90
664;DHT22;314;48.770;9.246;2022-08-19T00:39:29;22.70;80.10
664;DHT22;314;48.770;9.246;2022-08-19T00:41:55;22.70;80.10
664;DHT22;314;48.770;9.246;2022-08-19T00:44:28;22.70;80.10
664;DHT22;314;48.770;9.246;2022-08-19T00:46:56;22.70;80.20
664;DHT22;314;48.770;9.246;2022-08-19T00:49:41;22.70;80.30
664;DHT22;314;48.770;9.246;2022-08-19T00:52:15;22.70;80.30
664;DHT22;314;48.770;9.246;2022-08-19T00:54:42;22.60;80.30
664;DHT22;314;48.770;9.246;2022-08-19T00:57:12;22.70;80.60
664;DHT22;314;48.770;9.246;2022-08-19T00:59:40;22.60;80.90
664;DHT22;314;48.770;9.246;2022-08-19T01:02:08;22.70;80.60
664;DHT22;314;48.770;9.246;2022-08-19T01:04:34;22.70;80.50
664;DHT22;314;48.770;9.246;2022-08-19T01:07:01;22.70;80.30
664;DHT22;314;48.770;9.246;2022-08-19T01:09:27;22.70;80.60
664;DHT22;314;48.770;9.246;2022-08-19T01:11:53;22.70;80.60
664;DHT22;314;48.770;9.246;2022-08-19T01:14:19;22.70;80.50
664;DHT22;314;48.770;9.246;2022-08-19T01:16:45;22.60;80.90
664;DHT22;314;48.770;9.246;2022-08-19T01:19:28;22.60;80.90
664;DHT22;314;48.770;9.246;2022-08-19T01:22:08;22.60;80.90
664;DHT22;314;48.770;9.246;2022-08-19T01:24:35;22.60;80.90
664;DHT22;314;48.770;9.246;2022-08-19T01:27:04;22.70;80.80
664;DHT22;314;48.770;9.246;2022-08-19T01:29:30;22.70;80.80
664;DHT22;314;48.770;9.246;2022-08-19T01:31:56;22.70;80.90
664;DHT22;314;48.770;9.246;2022-08-19T01:34:22;22.60;81.00
664;DHT22;314;48.770;9.246;2022-08-19T01:36:49;22.60;81.30
664;DHT22;314;48.770;9.246;2022-08-19T01:39:21;22.50;81.30
664;DHT22;314;48.770;9.246;2022-08-19T01:41:48;22.50;81.40
664;DHT22;314;48.770;9.246;2022-08-19T01:44:14;22.50;81.40
664;DHT22;314;48.770;9.246;2022-08-19T01:46:41;22.50;81.60
664;DHT22;314;48.770;9.246;2022-08-19T01:49:08;22.50;81.70
664;DHT22;314;48.770;9.246;2022-08-19T01:51:34;22.50;81.70
664;DHT22;314;48.770;9.246;2022-08-19T01:54:00;22.50;81.70
664;DHT22;314;48.770;9.246;2022-08-19T01:56:26;22.50;81.90
664;DHT22;314;48.770;9.246;2022-08-19T01:59:00;22.50;81.90
664;DHT22;314;48.770;9.246;2022-08-19T02:01:27;22.50;82.00
664;DHT22;314;48.770;9.246;2022-08-19T02:03:54;22.50;81.90
664;DHT22;314;48.770;9.246;2022-08-19T02:06:20;22.50;81.70
664;DHT22;314;48.770;9.246;2022-08-19T02:08:46;22.50;82.00
664;DHT22;314;48.770;9.246;2022-08-19T02:11:24;22.50;82.00
664;DHT22;314;48.770;9.246;2022-08-19T02:13:52;22.50;82.30
664;DHT22;314;48.770;9.246;2022-08-19T02:16:19;22.40;82.60
664;DHT22;314;48.770;9.246;2022-08-19T02:18:46;22.40;82.70
664;DHT22;314;48.770;9.246;2022-08-19T02:21:15;22.40;82.70
664;DHT22;314;48.770;9.246;2022-08-19T02:23:41;22.30;83.00
664;DHT22;314;48.770;9.246;2022-08-19T02:26:08;22.20;83.70
664;DHT22;314;48.770;9.246;2022-08-19T02:28:34;22.20;83.70
664;DHT22;314;48.770;9.246;2022-08-19T02:31:00;22.30;83.50
664;DHT22;314;48.770;9.246;2022-08-19T02:33:27;22.20;83.80
664;DHT22;314;48.770;9.246;2022-08-19T02:35:53;22.20;83.70
664;DHT22;314;48.770;9.246;2022-08-19T02:38:19;22.20;83.80
664;DHT22;314;48.770;9.246;2022-08-19T02:43:22;22.20;84.10
664;DHT22;314;48.770;9.246;2022-08-19T02:45:48;22.10;84.20
664;DHT22;314;48.770;9.246;2022-08-19T02:48:22;22.10;84.60
664;DHT22;314;48.770;9.246;2022-08-19T02:50:50;22.10;84.50
664;DHT22;314;48.770;9.246;2022-08-19T02:53:21;22.10;84.60
664;DHT22;314;48.770;9.246;2022-08-19T02:55:48;22.10;84.80
664;DHT22;314;48.770;9.246;2022-08-19T02:58:15;22.10;84.90
664;DHT22;314;48.770;9.246;2022-08-19T03:00:48;22.10;84.90
664;DHT22;314;48.770;9.246;2022-08-19T03:03:15;22.00;85.30
664;DHT22;314;48.770;9.246;2022-08-19T03:05:41;22.00;85.50
664;DHT22;314;48.770;9.246;2022-08-19T03:08:09;22.00;85.60
664;DHT22;314;48.770;9.246;2022-08-19T03:10:55;22.00;85.50
664;DHT22;314;48.770;9.246;2022-08-19T03:13:21;21.90;85.90
664;DHT22;314;48.770;9.246;2022-08-19T03:15:48;21.90;86.00
664;DHT22;314;48.770;9.246;2022-08-19T03:18:15;21.90;85.90
664;DHT22;314;48.770;9.246;2022-08-19T03:20:52;21.80;86.20
664;DHT22;314;48.770;9.246;2022-08-19T03:23:20;21.80;86.60
664;DHT22;314;48.770;9.246;2022-08-19T03:25:47;21.60;87.30
664;DHT22;314;48.770;9.246;2022-08-19T03:28:15;21.70;87.10
664;DHT22;314;48.770;9.246;2022-08-19T03:30:42;21.60;87.30
664;DHT22;314;48.770;9.246;2022-08-19T03:33:10;21.60;87.40
664;DHT22;314;48.770;9.246;2022-08-19T03:35:37;21.60;87.40
664;DHT22;314;48.770;9.246;2022-08-19T03:38:06;21.60;87.60
664;DHT22;314;48.770;9.246;2022-08-19T03:40:33;21.60;87.40
664;DHT22;314;48.770;9.246;2022-08-19T03:43:01;21.50;87.70
664;DHT22;314;48.770;9.246;2022-08-19T03:45:27;21.60;87.60
664;DHT22;314;48.770;9.246;2022-08-19T03:47:55;21.50;87.80
664;DHT22;314;48.770;9.246;2022-08-19T03:50:21;21.50;87.70
664;DHT22;314;48.770;9.246;2022-08-19T03:52:51;21.50;88.00
664;DHT22;314;48.770;9.246;2022-08-19T03:55:20;21.50;88.00
664;DHT22;314;48.770;9.246;2022-08-19T03:57:46;21.50;87.80
664;DHT22;314;48.770;9.246;2022-08-19T04:00:13;21.50;88.00
664;DHT22;314;48.770;9.246;2022-08-19T04:02:40;21.40;88.30
664;DHT22;314;48.770;9.246;2022-08-19T04:05:06;21.50;88.10
664;DHT22;314;48.770;9.246;2022-08-19T04:07:33;21.50;87.80
664;DHT22;314;48.770;9.246;2022-08-19T04:09:59;21.50;87.80
664;DHT22;314;48.770;9.246;2022-08-19T04:12:25;21.50;88.00
664;DHT22;314;48.770;9.246;2022-08-19T04:14:52;21.50;88.10
664;DHT22;314;48.770;9.246;2022-08-19T04:17:18;21.40;88.30
664;DHT22;314;48.770;9.246;2022-08-19T04:19:47;21.40;88.40
664;DHT22;314;48.770;9.246;2022-08-19T04:22:13;21.30;88.50
664;DHT22;314;48.770;9.246;2022-08-19T04:24:39;21.30;88.90
664;DHT22;314;48.770;9.246;2022-08-19T04:27:05;21.30;88.90
664;DHT22;314;48.770;9.246;2022-08-19T04:29:33;21.30;88.90
664;DHT22;314;48.770;9.246;2022-08-19T04:32:00;21.30;88.80
664;DHT22;314;48.770;9.246;2022-08-19T04:34:28;21.30;88.90
664;DHT22;314;48.770;9.246;2022-08-19T04:36:56;21.20;89.10
664;DHT22;314;48.770;9.246;2022-08-19T04:39:26;21.20;89.20
664;DHT22;314;48.770;9.246;2022-08-19T04:42:13;21.30;89.10
664;DHT22;314;48.770;9.246;2022-08-19T04:45:05;21.30;88.80
664;DHT22;314;48.770;9.246;2022-08-19T04:47:32;21.30;88.70
664;DHT22;314;48.770;9.246;2022-08-19T04:49:58;21.30;88.80
664;DHT22;314;48.770;9.246;2022-08-19T04:52:25;21.30;88.80
664;DHT22;314;48.770;9.246;2022-08-19T04:54:51;21.30;88.90
664;DHT22;314;48.770;9.246;2022-08-19T04:57:16;21.30;88.80
664;DHT22;314;48.770;9.246;2022-08-19T04:59:42;21.20;88.90
664;DHT22;314;48.770;9.246;2022-08-19T05:02:09;21.20;89.10
664;DHT22;314;48.770;9.246;2022-08-19T05:04:38;21.30;88.90
664;DHT22;314;48.770;9.246;2022-08-19T05:07:06;21.20;88.80
664;DHT22;314;48.770;9.246;2022-08-19T05:09:32;21.30;88.90
664;DHT22;314;48.770;9.246;2022-08-19T05:11:58;21.30;88.70
664;DHT22;314;48.770;9.246;2022-08-19T05:14:24;21.30;88.70
664;DHT22;314;48.770;9.246;2022-08-19T05:16:50;21.30;88.80
664;DHT22;314;48.770;9.246;2022-08-19T05:19:16;21.20;88.90
664;DHT22;314;48.770;9.246;2022-08-19T05:22:00;21.30;88.80
664;DHT22;314;48.770;9.246;2022-08-19T05:24:45;21.30;88.90
664;DHT22;314;48.770;9.246;2022-08-19T05:27:11;21.30;88.80
664;DHT22;314;48.770;9.246;2022-08-19T05:29:37;21.40;88.40
664;DHT22;314;48.770;9.246;2022-08-19T05:32:05;21.40;88.30
664;DHT22;314;48.770;9.246;2022-08-19T05:34:34;21.40;88.10
664;DHT22;314;48.770;9.246;2022-08-19T05:37:03;21.40;88.30
664;DHT22;314;48.770;9.246;2022-08-19T05:39:32;21.30;88.80
664;DHT22;314;48.770;9.246;2022-08-19T05:42:02;21.30;88.90
664;DHT22;314;48.770;9.246;2022-08-19T05:44:30;21.30;89.20
664;DHT22;314;48.770;9.246;2022-08-19T05:46:57;21.40;88.80
664;DHT22;314;48.770;9.246;2022-08-19T05:49:24;21.40;88.90
664;DHT22;314;48.770;9.246;2022-08-19T05:51:51;21.20;89.50
664;DHT22;314;48.770;9.246;2022-08-19T05:54:18;21.30;89.40
664;DHT22;314;48.770;9.246;2022-08-19T05:56:45;21.40;88.90
664;DHT22;314;48.770;9.246;2022-08-19T05:59:16;21.20;89.50
664;DHT22;314;48.770;9.246;2022-08-19T06:01:44;21.20;89.80
664;DHT22;314;48.770;9.246;2022-08-19T06:04:12;21.30;89.50
664;DHT22;314;48.770;9.246;2022-08-19T06:06:48;21.40;89.20
664;DHT22;314;48.770;9.246;2022-08-19T06:09:15;21.40;89.20
664;DHT22;314;48.770;9.246;2022-08-19T06:11:44;21.40;89.80
664;DHT22;314;48.770;9.246;2022-08-19T06:14:13;21.40;90.20
664;DHT22;314;48.770;9.246;2022-08-19T06:16:41;21.40;91.10
664;DHT22;314;48.770;9.246;2022-08-19T06:19:15;21.30;91.50
664;DHT22;314;48.770;9.246;2022-08-19T06:21:44;21.20;92.00
664;DHT22;314;48.770;9.246;2022-08-19T06:24:13;21.20;92.50
664;DHT22;314;48.770;9.246;2022-08-19T06:26:42;21.20;92.80
664;DHT22;314;48.770;9.246;2022-08-19T06:29:10;21.20;92.80
664;DHT22;314;48.770;9.246;2022-08-19T06:31:37;21.20;93.60
664;DHT22;314;48.770;9.246;2022-08-19T06:34:06;21.10;93.50
664;DHT22;314;48.770;9.246;2022-08-19T06:36:37;21.10;93.60
664;DHT22;314;48.770;9.246;2022-08-19T06:39:16;21.10;93.50
664;DHT22;314;48.770;9.246;2022-08-19T06:41:44;21.10;93.60
664;DHT22;314;48.770;9.246;2022-08-19T06:44:11;21.00;93.60
664;DHT22;314;48.770;9.246;2022-08-19T06:46:39;20.90;94.20
664;DHT22;314;48.770;9.246;2022-08-19T06:49:05;21.00;94.30
664;DHT22;314;48.770;9.246;2022-08-19T06:51:31;21.00;94.00
664;DHT22;314;48.770;9.246;2022-08-19T06:53:58;20.90;94.30
664;DHT22;314;48.770;9.246;2022-08-19T06:56:29;21.00;94.80
664;DHT22;314;48.770;9.246;2022-08-19T06:59:04;21.00;94.70
664;DHT22;314;48.770;9.246;2022-08-19T07:01:38;21.00;94.80
664;DHT22;314;48.770;9.246;2022-08-19T07:04:06;21.10;94.80
664;DHT22;314;48.770;9.246;2022-08-19T07:06:34;21.10;93.90
664;DHT22;314;48.770;9.246;2022-08-19T07:09:01;21.10;93.80
664;DHT22;314;48.770;9.246;2022-08-19T07:11:27;21.10;94.10
664;DHT22;314;48.770;9.246;2022-08-19T07:13:53;21.20;94.10
664;DHT22;314;48.770;9.246;2022-08-19T07:16:20;21.20;93.50
664;DHT22;314;48.770;9.246;2022-08-19T07:18:48;21.20;93.70
664;DHT22;314;48.770;9.246;2022-08-19T07:21:20;21.20;93.40
664;DHT22;314;48.770;9.246;2022-08-19T07:23:47;21.20;93.40
664;DHT22;314;48.770;9.246;2022-08-19T07:26:23;21.20;92.80
664;DHT22;314;48.770;9.246;2022-08-19T07:28:49;21.20;93.30
664;DHT22;314;48.770;9.246;2022-08-19T07:31:18;21.10;93.40
664;DHT22;314;48.770;9.246;2022-08-19T07:33:46;21.00;93.40
664;DHT22;314;48.770;9.246;2022-08-19T07:36:15;21.00;93.80
664;DHT22;314;48.770;9.246;2022-08-19T07:38:42;20.90;94.50
664;DHT22;314;48.770;9.246;2022-08-19T07:41:12;20.80;94.50
664;DHT22;314;48.770;9.246;2022-08-19T07:43:39;20.80;95.60
664;DHT22;314;48.770;9.246;2022-08-19T07:46:05;20.80;95.60
664;DHT22;314;48.770;9.246;2022-08-19T07:48:31;20.80;94.40
664;DHT22;314;48.770;9.246;2022-08-19T07:50:59;20.80;95.30
664;DHT22;314;48.770;9.246;2022-08-19T07:53:28;20.80;95.10
664;DHT22;314;48.770;9.246;2022-08-19T07:55:54;20.70;95.70
664;DHT22;314;48.770;9.246;2022-08-19T07:58:22;20.60;96.00
664;DHT22;314;48.770;9.246;2022-08-19T08:00:49;20.70;96.00
664;DHT22;314;48.770;9.246;2022-08-19T08:03:18;20.70;96.50
664;DHT22;314;48.770;9.246;2022-08-19T08:05:44;20.70;97.20
664;DHT22;314;48.770;9.246;2022-08-19T08:08:29;20.70;96.50
664;DHT22;314;48.770;9.246;2022-08-19T08:11:15;20.70;96.30
664;DHT22;314;48.770;9.246;2022-08-19T08:13:42;20.80;97.10
664;DHT22;314;48.770;9.246;2022-08-19T08:16:08;20.90;97.20
664;DHT22;314;48.770;9.246;2022-08-19T08:18:34;20.90;96.70
664;DHT22;314;48.770;9.246;2022-08-19T08:21:07;20.90;96.30
664;DHT22;314;48.770;9.246;2022-08-19T08:23:33;20.90;96.00
664;DHT22;314;48.770;9.246;2022-08-19T08:25:59;20.90;96.00
664;DHT22;314;48.770;9.246;2022-08-19T08:28:27;20.90;96.30
664;DHT22;314;48.770;9.246;2022-08-19T08:30:54;20.90;96.00
664;DHT22;314;48.770;9.246;2022-08-19T08:33:23;20.90;96.20
664;DHT22;314;48.770;9.246;2022-08-19T08:35:49;20.90;96.00
664;DHT22;314;48.770;9.246;2022-08-19T08:38:15;20.90;96.60
664;DHT22;314;48.770;9.246;2022-08-19T08:40:50;20.90;97.30
664;DHT22;314;48.770;9.246;2022-08-19T08:43:33;20.80;97.40
664;DHT22;314;48.770;9.246;2022-08-19T08:46:02;20.80;97.50
664;DHT22;314;48.770;9.246;2022-08-19T08:51:37;20.90;97.90
664;DHT22;314;48.770;9.246;2022-08-19T08:54:10;21.00;98.20
664;DHT22;314;48.770;9.246;2022-08-19T08:56:41;21.10;97.10
664;DHT22;314;48.770;9.246;2022-08-19T08:59:31;21.30;97.20
664;DHT22;314;48.770;9.246;2022-08-19T09:02:00;21.40;97.10
664;DHT22;314;48.770;9.246;2022-08-19T09:04:26;21.40;95.20
664;DHT22;314;48.770;9.246;2022-08-19T09:09:53;21.60;95.50
664;DHT22;314;48.770;9.246;2022-08-19T09:15:08;21.80;94.80
664;DHT22;314;48.770;9.246;2022-08-19T09:17:35;21.80;95.80
664;DHT22;314;48.770;9.246;2022-08-19T09:20:13;21.90;95.50
664;DHT22;314;48.770;9.246;2022-08-19T09:22:41;21.90;95.00
664;DHT22;314;48.770;9.246;2022-08-19T09:25:13;21.90;94.50
664;DHT22;314;48.770;9.246;2022-08-19T09:27:41;21.80;94.50
664;DHT22;314;48.770;9.246;2022-08-19T09:30:10;21.80;95.70
664;DHT22;314;48.770;9.246;2022-08-19T09:32:36;21.80;96.20
664;DHT22;314;48.770;9.246;2022-08-19T09:35:02;21.80;96.70
664;DHT22;314;48.770;9.246;2022-08-19T09:37:28;21.70;96.50
664;DHT22;314;48.770;9.246;2022-08-19T09:39:54;21.70;96.50
664;DHT22;314;48.770;9.246;2022-08-19T09:42:20;21.70;96.90
664;DHT22;314;48.770;9.246;2022-08-19T09:44:46;21.70;96.70
664;DHT22;314;48.770;9.246;2022-08-19T09:47:12;21.80;97.30
664;DHT22;314;48.770;9.246;2022-08-19T09:49:40;21.80;97.10
664;DHT22;314;48.770;9.246;2022-08-19T09:52:10;21.80;96.50
664;DHT22;314;48.770;9.246;2022-08-19T09:54:39;21.80;97.00
664;DHT22;314;48.770;9.246;2022-08-19T09:57:05;21.90;96.90
664;DHT22;314;48.770;9.246;2022-08-19T09:59:31;21.90;97.10
664;DHT22;314;48.770;9.246;2022-08-19T10:01:57;21.90;96.60
664;DHT22;314;48.770;9.246;2022-08-19T10:04:23;21.90;97.10
664;DHT22;314;48.770;9.246;2022-08-19T10:07:09;21.90;96.70
664;DHT22;314;48.770;9.246;2022-08-19T10:09:35;21.90;98.40
664;DHT22;314;48.770;9.246;2022-08-19T10:12:03;21.90;98.90
664;DHT22;314;48.770;9.246;2022-08-19T10:14:29;21.90;99.10
664;DHT22;314;48.770;9.246;2022-08-19T10:16:55;21.90;99.10
664;DHT22;314;48.770;9.246;2022-08-19T10:19:22;21.90;99.10
664;DHT22;314;48.770;9.246;2022-08-19T10:21:48;21.90;99.10
664;DHT22;314;48.770;9.246;2022-08-19T10:24:13;21.90;99.10
664;DHT22;314;48.770;9.246;2022-08-19T10:26:40;21.90;99.10
664;DHT22;314;48.770;9.246;2022-08-19T10:29:13;21.90;99.10
664;DHT22;314;48.770;9.246;2022-08-19T10:31:41;21.90;99.10
664;DHT22;314;48.770;9.246;2022-08-19T10:34:08;21.80;99.10
664;DHT22;314;48.770;9.246;2022-08-19T10:36:36;21.90;99.10
664;DHT22;314;48.770;9.246;2022-08-19T10:39:07;21.90;99.10
664;DHT22;314;48.770;9.246;2022-08-19T10:41:36;21.90;99.10
664;DHT22;314;48.770;9.246;2022-08-19T10:44:12;21.90;99.10
664;DHT22;314;48.770;9.246;2022-08-19T10:46:41;21.90;99.10
664;DHT22;314;48.770;9.246;2022-08-19T10:49:09;22.00;99.10
664;DHT22;314;48.770;9.246;2022-08-19T10:51:36;22.10;99.10
664;DHT22;314;48.770;9.246;2022-08-19T10:54:21;22.20;99.10
664;DHT22;314;48.770;9.246;2022-08-19T10:56:47;22.20;99.10
664;DHT22;314;48.770;9.246;2022-08-19T10:59:27;22.20;99.10
664;DHT22;314;48.770;9.246;2022-08-19T11:01:59;22.30;99.10
664;DHT22;314;48.770;9.246;2022-08-19T11:04:25;22.30;99.10
664;DHT22;314;48.770;9.246;2022-08-19T11:06:51;22.30;99.10
664;DHT22;314;48.770;9.246;2022-08-19T11:09:21;22.30;99.10
664;DHT22;314;48.770;9.246;2022-08-19T11:11:49;22.30;99.10
664;DHT22;314;48.770;9.246;2022-08-19T11:14:17;22.30;99.10
664;DHT22;314;48.770;9.246;2022-08-19T11:16:47;22.20;99.10
664;DHT22;314;48.770;9.246;2022-08-19T11:19:14;22.20;99.10
664;DHT22;314;48.770;9.246;2022-08-19T11:21:44;22.10;99.10
664;DHT22;314;48.770;9.246;2022-08-19T11:24:13;22.10;99.10
664;DHT22;314;48.770;9.246;2022-08-19T11:26:41;22.10;99.10
664;DHT22;314;48.770;9.246;2022-08-19T11:29:10;22.10;99.10
664;DHT22;314;48.770;9.246;2022-08-19T11:31:37;21.90;99.10
664;DHT22;314;48.770;9.246;2022-08-19T11:34:07;21.80;99.10
664;DHT22;314;48.770;9.246;2022-08-19T11:36:34;21.90;99.10
664;DHT22;314;48.770;9.246;2022-08-19T11:39:02;21.90;99.10
664;DHT22;314;48.770;9.246;2022-08-19T11:41:28;21.90;99.10
664;DHT22;314;48.770;9.246;2022-08-19T11:43:54;21.90;99.10
664;DHT22;314;48.770;9.246;2022-08-19T11:46:23;22.10;99.10
664;DHT22;314;48.770;9.246;2022-08-19T11:48:49;22.10;99.10
664;DHT22;314;48.770;9.246;2022-08-19T11:51:21;22.10;99.10
664;DHT22;314;48.770;9.246;2022-08-19T11:53:48;22.10;99.10
664;DHT22;314;48.770;9.246;2022-08-19T11:56:15;22.10;99.10
664;DHT22;314;48.770;9.246;2022-08-19T11:58:41;22.00;99.10
664;DHT22;314;48.770;9.246;2022-08-19T12:01:11;22.10;99.10
664;DHT22;314;48.770;9.246;2022-08-19T12:03:38;22.20;99.10
664;DHT22;314;48.770;9.246;2022-08-19T12:06:10;22.20;99.10
664;DHT22;314;48.770;9.246;2022-08-19T12:08:37;22.20;99.10
664;DHT22;314;48.770;9.246;2022-08-19T12:11:04;22.20;99.10
664;DHT22;314;48.770;9.246;2022-08-19T12:13:33;22.20;99.10
664;DHT22;314;48.770;9.246;2022-08-19T12:16:00;22.20;99.10
664;DHT22;314;48.770;9.246;2022-08-19T12:18:26;22.10;99.10
664;DHT22;314;48.770;9.246;2022-08-19T12:20:53;22.10;99.10
664;DHT22;314;48.770;9.246;2022-08-19T12:23:22;22.00;99.10
664;DHT22;314;48.770;9.246;2022-08-19T12:25:49;22.00;99.10
664;DHT22;314;48.770;9.246;2022-08-19T12:28:23;22.10;99.10
664;DHT22;314;48.770;9.246;2022-08-19T12:30:50;22.10;99.10
664;DHT22;314;48.770;9.246;2022-08-19T12:33:17;22.20;99.10
664;DHT22;314;48.770;9.246;2022-08-19T12:35:45;22.20;99.10
664;DHT22;314;48.770;9.246;2022-08-19T12:38:13;22.10;99.10
664;DHT22;314;48.770;9.246;2022-08-19T12:40:40;22.00;99.10
664;DHT22;314;48.770;9.246;2022-08-19T12:43:07;22.00;99.10
664;DHT22;314;48.770;9.246;2022-08-19T12:45:33;21.90;99.10
664;DHT22;314;48.770;9.246;2022-08-19T12:47:58;21.90;99.10
664;DHT22;314;48.770;9.246;2022-08-19T12:50:24;22.00;99.10
664;DHT22;314;48.770;9.246;2022-08-19T12:52:50;22.00;99.10
664;DHT22;314;48.770;9.246;2022-08-19T12:55:16;22.10;99.10
664;DHT22;314;48.770;9.246;2022-08-19T12:57:44;22.10;99.10
664;DHT22;314;48.770;9.246;2022-08-19T13:00:14;22.10;99.10
664;DHT22;314;48.770;9.246;2022-08-19T13:02:43;22.20;99.10
664;DHT22;314;48.770;9.246;2022-08-19T13:05:12;22.20;99.10
664;DHT22;314;48.770;9.246;2022-08-19T13:07:39;22.20;99.10
664;DHT22;314;48.770;9.246;2022-08-19T13:10:07;22.30;99.10
664;DHT22;314;48.770;9.246;2022-08-19T13:12:34;22.20;99.10
664;DHT22;314;48.770;9.246;2022-08-19T13:15:00;22.20;99.10
664;DHT22;314;48.770;9.246;2022-08-19T13:17:26;22.10;99.10
664;DHT22;314;48.770;9.246;2022-08-19T13:19:52;22.20;99.10
664;DHT22;314;48.770;9.246;2022-08-19T13:22:18;22.10;99.10
664;DHT22;314;48.770;9.246;2022-08-19T13:24:44;22.10;99.10
664;DHT22;314;48.770;9.246;2022-08-19T13:27:09;21.90;99.10
664;DHT22;314;48.770;9.246;2022-08-19T13:29:35;21.90;99.10
664;DHT22;314;48.770;9.246;2022-08-19T13:32:19;21.90;99.10
664;DHT22;314;48.770;9.246;2022-08-19T13:35:04;21.80;99.10
664;DHT22;314;48.770;9.246;2022-08-19T13:37:30;21.80;99.10
664;DHT22;314;48.770;9.246;2022-08-19T13:40:13;21.70;99.10
664;DHT22;314;48.770;9.246;2022-08-19T13:42:42;21.60;99.10
664;DHT22;314;48.770;9.246;2022-08-19T13:45:08;21.60;99.10
664;DHT22;314;48.770;9.246;2022-08-19T13:47:34;21.50;99.10
664;DHT22;314;48.770;9.246;2022-08-19T13:50:03;21.50;99.10
664;DHT22;314;48.770;9.246;2022-08-19T13:52:29;21.50;99.10
664;DHT22;314;48.770;9.246;2022-08-19T13:54:54;21.40;99.10
664;DHT22;314;48.770;9.246;2022-08-19T13:57:22;21.40;99.10
664;DHT22;314;48.770;9.246;2022-08-19T13:59:47;21.40;99.10
664;DHT22;314;48.770;9.246;2022-08-19T14:02:13;21.40;99.10
664;DHT22;314;48.770;9.246;2022-08-19T14:04:39;21.40;99.10
664;DHT22;314;48.770;9.246;2022-08-19T14:07:05;21.40;99.10
664;DHT22;314;48.770;9.246;2022-08-19T14:09:31;21.40;99.10
664;DHT22;314;48.770;9.246;2022-08-19T14:11:56;21.40;99.10
664;DHT22;314;48.770;9.246;2022-08-19T14:14:23;21.40;99.10
664;DHT22;314;48.770;9.246;2022-08-19T14:16:48;21.40;99.10
664;DHT22;314;48.770;9.246;2022-08-19T14:19:15;21.50;99.10
664;DHT22;314;48.770;9.246;2022-08-19T14:21:41;21.50;99.10
664;DHT22;314;48.770;9.246;2022-08-19T14:24:07;21.50;99.10
664;DHT22;314;48.770;9.246;2022-08-19T14:26:33;21.50;99.10
664;DHT22;314;48.770;9.246;2022-08-19T14:28:59;21.40;99.10
664;DHT22;314;48.770;9.246;2022-08-19T14:31:27;21.40;99.10
664;DHT22;314;48.770;9.246;2022-08-19T14:33:52;21.40;99.10
664;DHT22;314;48.770;9.246;2022-08-19T14:36:19;21.40;99.10
664;DHT22;314;48.770;9.246;2022-08-19T14:38:47;21.40;99.10
664;DHT22;314;48.770;9.246;2022-08-19T14:41:20;21.50;99.10
664;DHT22;314;48.770;9.246;2022-08-19T14:43:48;21.50;99.10
664;DHT22;314;48.770;9.246;2022-08-19T14:46:17;21.50;99.10
664;DHT22;314;48.770;9.246;2022-08-19T14:48:46;21.60;99.10
664;DHT22;314;48.770;9.246;2022-08-19T14:51:13;21.70;99.10
664;DHT22;314;48.770;9.246;2022-08-19T14:53:40;21.70;99.10
664;DHT22;314;48.770;9.246;2022-08-19T14:56:10;21.70;99.10
664;DHT22;314;48.770;9.246;2022-08-19T14:58:37;21.70;99.10
664;DHT22;314;48.770;9.246;2022-08-19T15:01:03;21.70;99.10
664;DHT22;314;48.770;9.246;2022-08-19T15:03:30;21.60;99.10
664;DHT22;314;48.770;9.246;2022-08-19T15:05:58;21.70;99.10
664;DHT22;314;48.770;9.246;2022-08-19T15:08:24;21.60;99.10
664;DHT22;314;48.770;9.246;2022-08-19T15:10:51;21.60;99.10
664;DHT22;314;48.770;9.246;2022-08-19T15:13:17;21.60;99.10
664;DHT22;314;48.770;9.246;2022-08-19T15:15:43;21.60;99.10
664;DHT22;314;48.770;9.246;2022-08-19T15:18:10;21.60;99.10
664;DHT22;314;48.770;9.246;2022-08-19T15:20:37;21.70;99.10
664;DHT22;314;48.770;9.246;2022-08-19T15:23:03;21.80;99.10
664;DHT22;314;48.770;9.246;2022-08-19T15:25:29;21.90;99.10
664;DHT22;314;48.770;9.246;2022-08-19T15:27:55;22.00;99.10
664;DHT22;314;48.770;9.246;2022-08-19T15:30:26;22.20;99.10
664;DHT22;314;48.770;9.246;2022-08-19T15:32:55;22.40;99.10
664;DHT22;314;48.770;9.246;2022-08-19T15:35:22;22.50;99.10
664;DHT22;314;48.770;9.246;2022-08-19T15:37:50;22.60;99.10
664;DHT22;314;48.770;9.246;2022-08-19T15:40:16;22.70;99.10
664;DHT22;314;48.770;9.246;2022-08-19T15:42:42;22.50;99.10
664;DHT22;314;48.770;9.246;2022-08-19T15:45:11;22.50;98.50
664;DHT22;314;48.770;9.246;2022-08-19T15:47:37;22.40;99.00
664;DHT22;314;48.770;9.246;2022-08-19T15:50:15;22.40;99.10
664;DHT22;314;48.770;9.246;2022-08-19T15:52:54;22.40;99.10
664;DHT22;314;48.770;9.246;2022-08-19T15:55:23;22.50;99.10
664;DHT22;314;48.770;9.246;2022-08-19T15:57:50;22.50;99.10
664;DHT22;314;48.770;9.246;2022-08-19T16:00:33;22.60;99.10
664;DHT22;314;48.770;9.246;2022-08-19T16:03:18;22.60;99.10
664;DHT22;314;48.770;9.246;2022-08-19T16:06:02;22.70;99.00
664;DHT22;314;48.770;9.246;2022-08-19T16:08:46;22.80;99.10
664;DHT22;314;48.770;9.246;2022-08-19T16:11:17;22.90;98.90
664;DHT22;314;48.770;9.246;2022-08-19T16:13:47;22.90;98.40
664;DHT22;314;48.770;9.246;2022-08-19T16:16:18;22.90;97.80
664;DHT22;314;48.770;9.246;2022-08-19T16:18:43;23.00;97.50
664;DHT22;314;48.770;9.246;2022-08-19T16:21:13;22.90;97.50
664;DHT22;314;48.770;9.246;2022-08-19T16:23:41;22.90;97.10
664;DHT22;314;48.770;9.246;2022-08-19T16:26:06;22.90;97.30
664;DHT22;314;48.770;9.246;2022-08-19T16:28:33;22.90;96.70
664;DHT22;314;48.770;9.246;2022-08-19T16:30:59;23.10;97.00
664;DHT22;314;48.770;9.246;2022-08-19T16:33:25;23.10;96.10
664;DHT22;314;48.770;9.246;2022-08-19T16:35:51;23.10;95.70
664;DHT22;314;48.770;9.246;2022-08-19T16:38:16;23.10;95.90
664;DHT22;314;48.770;9.246;2022-08-19T16:40:42;23.00;95.80
664;DHT22;314;48.770;9.246;2022-08-19T16:43:10;22.90;96.20
664;DHT22;314;48.770;9.246;2022-08-19T16:45:35;22.90;96.60
664;DHT22;314;48.770;9.246;2022-08-19T16:48:01;22.80;96.80
664;DHT22;314;48.770;9.246;2022-08-19T16:50:28;22.70;96.40
664;DHT22;314;48.770;9.246;2022-08-19T16:52:54;22.60;97.20